createdAt,value
2022-08-17T00:00:56.098Z,19.05
2022-08-17T00:01:56.266Z,19.03
2022-08-17T00:02:56.105Z,19.01
2022-08-17T00:03:56.101Z,19.02
2022-08-17T00:04:56.099Z,19.05
2022-08-17T00:05:56.080Z,19.12
2022-08-17T00:06:56.145Z,19.17
2022-08-17T00:07:56.292Z,19.21
2022-08-17T00:08:56.589Z,19.21
2022-08-17T00:09:57.132Z,19.21
2022-08-17T00:10:57.621Z,19.19
2022-08-17T00:12:42.400Z,19.17
2022-08-17T00:12:56.386Z,19.14
2022-08-17T00:13:57.327Z,19.12
2022-08-17T00:14:56.635Z,19.09
2022-08-17T00:15:56.091Z,19.08
2022-08-17T00:16:59.080Z,19.06
2022-08-17T00:17:56.096Z,19.05
2022-08-17T00:19:06.423Z,19.04
2022-08-17T00:19:56.109Z,19.03
2022-08-17T00:20:56.100Z,19.02
2022-08-17T00:22:33.357Z,19.01
2022-08-17T00:22:56.108Z,18.99
2022-08-17T00:23:56.118Z,18.98
2022-08-17T00:24:56.090Z,18.97
2022-08-17T00:25:56.095Z,18.97
2022-08-17T00:26:56.096Z,18.98
2022-08-17T00:27:59.098Z,18.99
2022-08-17T00:28:56.131Z,18.99
2022-08-17T00:29:56.086Z,18.99
2022-08-17T00:30:56.098Z,19.01
2022-08-17T00:31:56.130Z,19.09
2022-08-17T00:33:10.791Z,19.17
2022-08-17T00:33:56.371Z,19.23
2022-08-17T00:34:56.121Z,19.28
2022-08-17T00:35:56.190Z,19.3
2022-08-17T00:36:56.064Z,19.32
2022-08-17T00:37:56.198Z,19.36
2022-08-17T00:38:56.207Z,19.4
2022-08-17T00:39:56.314Z,19.41
2022-08-17T00:40:59.482Z,19.42
2022-08-17T00:41:59.200Z,19.41
2022-08-17T00:42:57.646Z,19.4
2022-08-17T00:43:57.038Z,19.37
2022-08-17T00:44:56.718Z,19.33
2022-08-17T00:45:56.486Z,19.28
2022-08-17T00:46:56.161Z,19.24
2022-08-17T00:47:56.065Z,19.19
2022-08-17T00:48:56.326Z,19.14
2022-08-17T00:49:56.539Z,19.1
2022-08-17T00:50:56.769Z,19.05
2022-08-17T00:51:56.177Z,19.01
2022-08-17T00:52:56.472Z,19
2022-08-17T00:53:56.695Z,18.98
2022-08-17T00:54:56.485Z,18.96
2022-08-17T00:55:57.300Z,18.93
2022-08-17T00:56:56.128Z,18.91
2022-08-17T00:57:56.374Z,18.88
2022-08-17T00:58:56.084Z,18.86
2022-08-17T01:00:01.680Z,18.84
2022-08-17T01:00:56.256Z,18.82
2022-08-17T01:01:56.087Z,18.8
2022-08-17T01:02:56.257Z,18.77
2022-08-17T01:04:00.015Z,18.76
2022-08-17T01:04:56.389Z,18.72
2022-08-17T01:05:56.087Z,18.7
2022-08-17T01:06:56.076Z,18.67
2022-08-17T01:07:56.069Z,18.64
2022-08-17T01:08:59.094Z,18.61
2022-08-17T01:09:56.135Z,18.58
2022-08-17T01:11:01.690Z,18.54
2022-08-17T01:11:56.379Z,18.5
2022-08-17T01:12:56.100Z,18.47
2022-08-17T01:13:56.109Z,18.44
2022-08-17T01:14:56.259Z,18.39
2022-08-17T01:15:56.131Z,18.36
2022-08-17T01:16:56.185Z,18.34
2022-08-17T01:17:56.101Z,18.31
2022-08-17T01:18:56.087Z,18.29
2022-08-17T01:19:56.122Z,18.26
2022-08-17T01:20:56.094Z,18.24
2022-08-17T01:21:56.092Z,18.22
2022-08-17T01:22:56.091Z,18.19
2022-08-17T01:23:56.094Z,18.17
2022-08-17T01:24:56.130Z,18.15
2022-08-17T01:25:56.100Z,18.13
2022-08-17T01:26:59.115Z,18.09
2022-08-17T01:27:56.102Z,18.07
2022-08-17T01:28:56.101Z,18.04
2022-08-17T01:29:56.131Z,18.01
2022-08-17T01:30:59.551Z,17.99
2022-08-17T01:31:56.096Z,17.97
2022-08-17T01:32:56.096Z,17.95
2022-08-17T01:33:56.094Z,17.94
2022-08-17T01:34:56.129Z,17.93
2022-08-17T01:35:56.109Z,17.91
2022-08-17T01:36:56.198Z,17.9
2022-08-17T01:37:56.111Z,17.89
2022-08-17T01:38:56.088Z,17.87
2022-08-17T01:39:56.147Z,17.86
2022-08-17T01:40:59.111Z,17.84
2022-08-17T01:41:56.091Z,17.84
2022-08-17T01:42:56.082Z,17.84
2022-08-17T01:43:56.091Z,17.83
2022-08-17T01:44:56.121Z,17.83
2022-08-17T01:46:02.456Z,17.81
2022-08-17T01:46:56.098Z,17.8
2022-08-17T01:47:56.103Z,17.8
2022-08-17T01:48:56.139Z,17.79
2022-08-17T01:49:56.087Z,17.78
2022-08-17T01:50:56.095Z,17.77
2022-08-17T01:51:56.091Z,17.75
2022-08-17T01:52:56.101Z,17.72
2022-08-17T01:53:56.085Z,17.68
2022-08-17T01:54:56.131Z,17.65
2022-08-17T01:55:56.090Z,17.61
2022-08-17T01:56:56.102Z,17.55
2022-08-17T01:57:56.107Z,17.52
2022-08-17T01:58:56.107Z,17.48
2022-08-17T01:59:56.103Z,17.49
2022-08-17T02:01:00.348Z,17.53
2022-08-17T02:01:56.098Z,17.57
2022-08-17T02:02:56.095Z,17.61
2022-08-17T02:04:00.521Z,17.64
2022-08-17T02:04:56.096Z,17.65
2022-08-17T02:05:56.098Z,17.65
2022-08-17T02:06:56.090Z,17.64
2022-08-17T02:08:00.158Z,17.62
2022-08-17T02:09:02.165Z,17.6
2022-08-17T02:09:56.102Z,17.58
2022-08-17T02:10:56.310Z,17.55
2022-08-17T02:11:57.105Z,17.53
2022-08-17T02:12:56.097Z,17.51
2022-08-17T02:14:03.027Z,17.49
2022-08-17T02:14:56.099Z,17.46
2022-08-17T02:15:56.083Z,17.42
2022-08-17T02:16:56.098Z,17.39
2022-08-17T02:17:56.081Z,17.36
2022-08-17T02:18:56.107Z,17.33
2022-08-17T02:19:56.103Z,17.3
2022-08-17T02:20:56.102Z,17.26
2022-08-17T02:21:56.067Z,17.22
2022-08-17T02:22:56.083Z,17.19
2022-08-17T02:23:56.071Z,17.16
2022-08-17T02:25:01.854Z,17.16
2022-08-17T02:25:56.141Z,17.17
2022-08-17T02:26:56.148Z,17.18
2022-08-17T02:27:56.312Z,17.19
2022-08-17T02:28:56.390Z,17.2
2022-08-17T02:29:56.230Z,17.21
2022-08-17T02:31:03.103Z,17.21
2022-08-17T02:31:56.494Z,17.19
2022-08-17T02:32:57.071Z,17.18
2022-08-17T02:34:04.352Z,17.16
2022-08-17T02:34:56.094Z,17.13
2022-08-17T02:35:56.085Z,17.12
2022-08-17T02:36:56.091Z,17.13
2022-08-17T02:37:56.098Z,17.16
2022-08-17T02:38:56.096Z,17.18
2022-08-17T02:39:56.110Z,17.2
2022-08-17T02:40:56.100Z,17.2
2022-08-17T02:41:56.127Z,17.2
2022-08-17T02:42:56.125Z,17.18
2022-08-17T02:43:56.272Z,17.16
2022-08-17T02:44:56.095Z,17.15
2022-08-17T02:45:56.100Z,17.12
2022-08-17T02:46:56.079Z,17.09
2022-08-17T02:47:56.095Z,17.06
2022-08-17T02:48:56.081Z,17.04
2022-08-17T02:49:56.217Z,17
2022-08-17T02:50:56.088Z,16.97
2022-08-17T02:51:56.106Z,16.94
2022-08-17T02:53:02.182Z,16.91
2022-08-17T02:54:03.920Z,16.87
2022-08-17T02:54:56.097Z,16.83
2022-08-17T02:55:56.091Z,16.8
2022-08-17T02:56:56.103Z,16.77
2022-08-17T02:57:56.135Z,16.74
2022-08-17T02:58:56.139Z,16.72
2022-08-17T02:59:56.086Z,16.69
2022-08-17T03:00:59.098Z,16.67
2022-08-17T03:01:56.198Z,16.66
2022-08-17T03:02:56.151Z,16.64
2022-08-17T03:03:56.078Z,16.63
2022-08-17T03:04:56.106Z,16.61
2022-08-17T03:05:56.312Z,16.6
2022-08-17T03:06:56.093Z,16.59
2022-08-17T03:07:56.086Z,16.58
2022-08-17T03:08:56.087Z,16.55
2022-08-17T03:09:56.097Z,16.53
2022-08-17T03:10:56.101Z,16.52
2022-08-17T03:11:57.107Z,16.49
2022-08-17T03:12:56.100Z,16.48
2022-08-17T03:13:56.107Z,16.46
2022-08-17T03:14:56.108Z,16.44
2022-08-17T03:15:56.338Z,16.42
2022-08-17T03:16:56.094Z,16.4
2022-08-17T03:17:56.100Z,16.39
2022-08-17T03:18:56.093Z,16.43
2022-08-17T03:19:56.084Z,16.45
2022-08-17T03:20:56.099Z,16.5
2022-08-17T03:21:56.283Z,16.54
2022-08-17T03:23:02.072Z,16.56
2022-08-17T03:23:56.156Z,16.57
2022-08-17T03:24:57.159Z,16.58
2022-08-17T03:25:56.396Z,16.57
2022-08-17T03:26:57.319Z,16.56
2022-08-17T03:27:55.985Z,16.55
2022-08-17T03:28:56.526Z,16.54
2022-08-17T03:29:56.651Z,16.52
2022-08-17T03:30:56.094Z,16.51
2022-08-17T03:31:56.082Z,16.51
2022-08-17T03:32:56.102Z,16.5
2022-08-17T03:33:56.090Z,16.48
2022-08-17T03:34:56.119Z,16.47
2022-08-17T03:35:56.118Z,16.44
2022-08-17T03:36:56.234Z,16.42
2022-08-17T03:38:00.193Z,16.41
2022-08-17T03:38:56.084Z,16.38
2022-08-17T03:39:56.176Z,16.37
2022-08-17T03:40:59.832Z,16.37
2022-08-17T03:41:56.154Z,16.36
2022-08-17T03:42:56.068Z,16.36
2022-08-17T03:43:56.131Z,16.36
2022-08-17T03:44:59.167Z,16.37
2022-08-17T03:45:56.066Z,16.36
2022-08-17T03:46:56.474Z,16.37
2022-08-17T03:47:56.088Z,16.37
2022-08-17T03:48:56.203Z,16.37
2022-08-17T03:49:56.463Z,16.37
2022-08-17T03:50:56.456Z,16.37
2022-08-17T03:51:56.708Z,16.37
2022-08-17T03:52:56.410Z,16.37
2022-08-17T03:53:56.066Z,16.36
2022-08-17T03:54:56.296Z,16.37
2022-08-17T03:55:56.527Z,16.37
2022-08-17T03:56:56.308Z,16.37
2022-08-17T03:57:56.120Z,16.38
2022-08-17T03:58:56.109Z,16.38
2022-08-17T03:59:56.237Z,16.38
2022-08-17T04:00:56.086Z,16.38
2022-08-17T04:01:56.083Z,16.37
2022-08-17T04:02:56.100Z,16.37
2022-08-17T04:03:56.108Z,16.37
2022-08-17T04:04:56.185Z,16.37
2022-08-17T04:05:56.501Z,16.38
2022-08-17T04:06:56.093Z,16.4
2022-08-17T04:07:56.095Z,16.42
2022-08-17T04:08:56.306Z,16.45
2022-08-17T04:09:56.620Z,16.49
2022-08-17T04:10:56.189Z,16.54
2022-08-17T04:12:00.293Z,16.59
2022-08-17T04:12:56.130Z,16.62
2022-08-17T04:13:56.367Z,16.64
2022-08-17T04:14:56.111Z,16.7
2022-08-17T04:15:56.363Z,16.81
2022-08-17T04:16:56.317Z,16.92
2022-08-17T04:17:56.172Z,16.99
2022-08-17T04:18:56.219Z,17.03
2022-08-17T04:19:56.107Z,17.07
2022-08-17T04:20:57.098Z,17.1
2022-08-17T04:21:56.088Z,17.1
2022-08-17T04:22:56.063Z,17.11
2022-08-17T04:23:56.073Z,17.11
2022-08-17T04:24:59.232Z,17.1
2022-08-17T04:25:56.074Z,17.09
2022-08-17T04:26:56.199Z,17.09
2022-08-17T04:27:56.192Z,17.08
2022-08-17T04:28:56.194Z,17.07
2022-08-17T04:29:57.111Z,17.05
2022-08-17T04:30:56.343Z,17.04
2022-08-17T04:31:56.094Z,17.02
2022-08-17T04:33:03.580Z,17
2022-08-17T04:33:56.092Z,16.99
2022-08-17T04:34:56.101Z,16.97
2022-08-17T04:35:56.105Z,16.95
2022-08-17T04:36:56.099Z,16.93
2022-08-17T04:37:56.108Z,16.92
2022-08-17T04:38:59.105Z,16.89
2022-08-17T04:39:58.661Z,16.87
2022-08-17T04:40:56.103Z,16.86
2022-08-17T04:41:56.096Z,16.84
2022-08-17T04:43:00.207Z,16.82
2022-08-17T04:43:56.093Z,16.81
2022-08-17T04:44:56.125Z,16.81
2022-08-17T04:45:57.278Z,16.79
2022-08-17T04:46:56.091Z,16.79
2022-08-17T04:47:56.100Z,16.78
2022-08-17T04:48:56.114Z,16.77
2022-08-17T04:49:56.136Z,16.77
2022-08-17T04:50:56.101Z,16.77
2022-08-17T04:52:02.513Z,16.77
2022-08-17T04:52:56.326Z,16.78
2022-08-17T04:53:56.087Z,16.78
2022-08-17T04:54:56.108Z,16.78
2022-08-17T04:55:56.095Z,16.79
2022-08-17T04:56:56.097Z,16.8
2022-08-17T04:57:56.089Z,16.83
2022-08-17T04:58:56.096Z,16.85
2022-08-17T04:59:56.118Z,16.84
2022-08-17T05:00:56.161Z,16.86
2022-08-17T05:01:56.144Z,16.86
2022-08-17T05:02:56.275Z,16.86
2022-08-17T05:03:56.087Z,16.87
2022-08-17T05:04:56.095Z,16.89
2022-08-17T05:05:56.118Z,16.91
2022-08-17T05:06:56.099Z,16.92
2022-08-17T05:07:56.094Z,16.95
2022-08-17T05:08:56.087Z,16.97
2022-08-17T05:09:56.099Z,17
2022-08-17T05:10:56.141Z,17.02
2022-08-17T05:11:57.107Z,17.06
2022-08-17T05:12:56.110Z,17.1
2022-08-17T05:13:56.102Z,17.14
2022-08-17T05:14:56.090Z,17.2
2022-08-17T05:15:56.105Z,17.25
2022-08-17T05:16:56.103Z,17.32
2022-08-17T05:17:56.097Z,17.37
2022-08-17T05:18:56.096Z,17.42
2022-08-17T05:19:56.105Z,17.49
2022-08-17T05:20:56.149Z,17.56
2022-08-17T05:21:56.104Z,17.63
2022-08-17T05:22:56.237Z,17.7
2022-08-17T05:23:57.100Z,17.79
2022-08-17T05:24:56.110Z,17.88
2022-08-17T05:25:56.096Z,17.98
2022-08-17T05:26:56.084Z,18.08
2022-08-17T05:27:56.089Z,18.19
2022-08-17T05:28:59.757Z,18.28
2022-08-17T05:29:56.096Z,18.38
2022-08-17T05:30:56.120Z,18.47
2022-08-17T05:31:56.117Z,18.55
2022-08-17T05:32:56.074Z,18.63
2022-08-17T05:33:56.314Z,18.72
2022-08-17T05:34:57.094Z,18.81
2022-08-17T05:35:56.122Z,18.88
2022-08-17T05:36:56.084Z,18.96
2022-08-17T05:37:57.357Z,19.04
2022-08-17T05:38:56.107Z,19.11
2022-08-17T05:39:56.138Z,19.17
2022-08-17T05:40:56.155Z,19.24
2022-08-17T05:41:56.354Z,19.31
2022-08-17T05:42:56.188Z,19.4
2022-08-17T05:43:57.280Z,19.46
2022-08-17T05:44:56.339Z,19.51
2022-08-17T05:45:57.659Z,19.58
2022-08-17T05:46:56.114Z,19.64
2022-08-17T05:47:56.391Z,19.69
2022-08-17T05:48:56.087Z,19.73
2022-08-17T05:49:56.101Z,19.75
2022-08-17T05:50:56.111Z,19.72
2022-08-17T05:51:56.092Z,19.74
2022-08-17T05:52:56.101Z,19.79
2022-08-17T05:53:56.093Z,19.85
2022-08-17T05:54:56.136Z,19.84
2022-08-17T05:55:56.124Z,19.82
2022-08-17T05:56:56.088Z,19.85
2022-08-17T05:57:57.098Z,19.9
2022-08-17T05:58:56.092Z,19.94
2022-08-17T05:59:56.103Z,20
2022-08-17T06:00:56.171Z,20.01
2022-08-17T06:01:56.096Z,20.04
2022-08-17T06:02:56.105Z,20.07
2022-08-17T06:03:57.116Z,20.13
2022-08-17T06:04:56.103Z,20.21
2022-08-17T06:05:56.330Z,20.28
2022-08-17T06:06:56.100Z,20.36
2022-08-17T06:07:56.091Z,20.43
2022-08-17T06:08:56.098Z,20.47
2022-08-17T06:09:56.119Z,20.51
2022-08-17T06:10:57.091Z,20.55
2022-08-17T06:11:59.101Z,20.59
2022-08-17T06:12:56.098Z,20.63
2022-08-17T06:13:56.088Z,20.68
2022-08-17T06:14:57.097Z,20.73
2022-08-17T06:15:56.125Z,20.75
2022-08-17T06:16:56.106Z,20.8
2022-08-17T06:17:56.155Z,20.86
2022-08-17T06:18:56.086Z,20.94
2022-08-17T06:19:56.093Z,21.02
2022-08-17T06:20:56.101Z,21.15
2022-08-17T06:21:56.093Z,21.28
2022-08-17T06:22:56.101Z,21.4
2022-08-17T06:23:57.108Z,21.51
2022-08-17T06:24:56.097Z,21.62
2022-08-17T06:25:56.112Z,21.73
2022-08-17T06:26:56.103Z,21.85
2022-08-17T06:27:56.332Z,21.93
2022-08-17T06:28:56.089Z,22.02
2022-08-17T06:29:56.094Z,22.07
2022-08-17T06:31:01.012Z,22.1
2022-08-17T06:31:56.087Z,22.18
2022-08-17T06:32:56.089Z,22.24
2022-08-17T06:33:56.101Z,22.38
2022-08-17T06:34:56.099Z,22.51
2022-08-17T06:35:57.067Z,22.62
2022-08-17T06:36:56.262Z,22.65
2022-08-17T06:37:56.330Z,22.59
2022-08-17T06:38:56.599Z,22.6
2022-08-17T06:39:56.781Z,22.62
2022-08-17T06:40:56.999Z,22.51
2022-08-17T06:41:56.577Z,22.52
2022-08-17T06:43:04.940Z,22.53
2022-08-17T06:43:56.182Z,22.59
2022-08-17T06:44:56.844Z,22.52
2022-08-17T06:45:56.753Z,22.57
2022-08-17T06:46:56.101Z,22.63
2022-08-17T06:47:56.102Z,22.71
2022-08-17T06:48:56.129Z,22.84
2022-08-17T06:49:56.116Z,22.95
2022-08-17T06:50:56.108Z,23.12
2022-08-17T06:51:56.104Z,23.29
2022-08-17T06:52:56.224Z,23.49
2022-08-17T06:53:56.121Z,23.65
2022-08-17T06:54:56.095Z,23.41
2022-08-17T06:55:56.091Z,23.41
2022-08-17T06:56:56.084Z,23.23
2022-08-17T06:57:56.095Z,23.24
2022-08-17T06:58:56.151Z,23.17
2022-08-17T06:59:57.088Z,23.12
2022-08-17T07:00:59.340Z,23.03
2022-08-17T07:01:56.147Z,22.92
2022-08-17T07:02:56.094Z,22.96
2022-08-17T07:03:56.106Z,22.91
2022-08-17T07:04:56.086Z,22.91
2022-08-17T07:05:56.086Z,22.95
2022-08-17T07:06:56.092Z,22.92
2022-08-17T07:07:56.100Z,22.95
2022-08-17T07:08:56.097Z,22.91
2022-08-17T07:09:56.090Z,22.92
2022-08-17T07:10:56.094Z,22.99
2022-08-17T07:11:56.105Z,22.99
2022-08-17T07:12:56.095Z,23.03
2022-08-17T07:13:56.126Z,23.08
2022-08-17T07:14:56.084Z,23.12
2022-08-17T07:15:59.205Z,23.15
2022-08-17T07:16:56.102Z,23.04
2022-08-17T07:17:56.095Z,23.05
2022-08-17T07:18:56.107Z,23.06
2022-08-17T07:19:56.080Z,23.12
2022-08-17T07:20:56.102Z,23.17
2022-08-17T07:21:56.368Z,23.23
2022-08-17T07:23:00.382Z,23.21
2022-08-17T07:23:56.399Z,23.29
2022-08-17T07:24:56.395Z,23.25
2022-08-17T07:25:56.657Z,23.31
2022-08-17T07:26:56.070Z,23.31
2022-08-17T07:27:56.257Z,23.31
2022-08-17T07:28:56.130Z,23.24
2022-08-17T07:29:56.356Z,23.27
2022-08-17T07:30:56.117Z,23.16
2022-08-17T07:31:56.086Z,23.14
2022-08-17T07:32:56.228Z,23.19
2022-08-17T07:33:56.439Z,23.22
2022-08-17T07:34:56.205Z,23.29
2022-08-17T07:35:56.086Z,23.43
2022-08-17T07:36:56.077Z,23.58
2022-08-17T07:37:56.098Z,23.67
2022-08-17T07:38:56.086Z,23.77
2022-08-17T07:40:15.759Z,23.94
2022-08-17T07:40:56.087Z,24.05
2022-08-17T07:41:59.403Z,24.12
2022-08-17T07:42:56.100Z,24.19
2022-08-17T07:43:56.150Z,24.2
2022-08-17T07:44:56.227Z,24.31
2022-08-17T07:45:56.497Z,24.4
2022-08-17T07:46:56.113Z,24.29
2022-08-17T07:47:56.091Z,24.46
2022-08-17T07:48:56.098Z,24.67
2022-08-17T07:49:56.107Z,24.61
2022-08-17T07:50:56.086Z,24.73
2022-08-17T07:51:57.106Z,24.76
2022-08-17T07:52:56.095Z,24.92
2022-08-17T07:54:13.417Z,25.19
2022-08-17T07:54:56.120Z,25.35
2022-08-17T07:55:56.117Z,25.55
2022-08-17T07:56:56.119Z,25.44
2022-08-17T07:57:56.102Z,25.44
2022-08-17T07:58:56.092Z,25.57
2022-08-17T07:59:57.132Z,25.68
2022-08-17T08:00:56.095Z,25.84
2022-08-17T08:01:59.149Z,25.85
2022-08-17T08:02:57.106Z,25.86
2022-08-17T08:03:56.085Z,25.7
2022-08-17T08:05:00.870Z,25.68
2022-08-17T08:05:56.100Z,25.56
2022-08-17T08:06:56.273Z,25.56
2022-08-17T08:07:56.209Z,25.5
2022-08-17T08:08:56.089Z,25.68
2022-08-17T08:09:56.082Z,25.84
2022-08-17T08:10:56.098Z,26.06
2022-08-17T08:11:56.091Z,26.45
2022-08-17T08:12:56.085Z,26.84
2022-08-17T08:13:56.119Z,27.22
2022-08-17T08:14:56.093Z,27.47
2022-08-17T08:15:56.103Z,27.78
2022-08-17T08:16:56.104Z,27.83
2022-08-17T08:17:56.113Z,27.98
2022-08-17T08:18:59.133Z,28.07
2022-08-17T08:19:56.099Z,27.93
2022-08-17T08:20:56.090Z,27.93
2022-08-17T08:21:56.081Z,27.66
2022-08-17T08:22:56.088Z,27.49
2022-08-17T08:23:56.115Z,27.43
2022-08-17T08:24:56.082Z,27.25
2022-08-17T08:25:57.101Z,27.1
2022-08-17T08:26:56.119Z,27.09
2022-08-17T08:27:56.098Z,27.1
2022-08-17T08:28:56.128Z,26.93
2022-08-17T08:29:56.203Z,26.9
2022-08-17T08:30:56.193Z,27.02
2022-08-17T08:31:56.094Z,26.9
2022-08-17T08:32:59.209Z,26.96
2022-08-17T08:33:56.063Z,26.73
2022-08-17T08:35:02.428Z,26.69
2022-08-17T08:35:56.105Z,26.87
2022-08-17T08:37:14.133Z,26.72
2022-08-17T08:37:56.119Z,26.68
2022-08-17T08:38:56.205Z,26.5
2022-08-17T08:39:57.515Z,26.56
2022-08-17T08:40:56.755Z,26.58
2022-08-17T08:41:56.345Z,26.61
2022-08-17T08:42:56.467Z,26.5
2022-08-17T08:43:56.735Z,26.5
2022-08-17T08:44:59.298Z,26.63
2022-08-17T08:45:56.360Z,26.65
2022-08-17T08:46:56.671Z,26.79
2022-08-17T08:47:56.071Z,26.98
2022-08-17T08:49:01.771Z,27.22
2022-08-17T08:50:04.243Z,27.56
2022-08-17T08:50:57.903Z,27.47
2022-08-17T08:51:56.097Z,27.68
2022-08-17T08:52:56.345Z,27.94
2022-08-17T08:53:56.303Z,27.93
2022-08-17T08:54:56.548Z,28.19
2022-08-17T08:55:56.228Z,28.38
2022-08-17T08:57:23.049Z,28.45
2022-08-17T08:57:56.197Z,28.51
2022-08-17T08:58:56.368Z,28.59
2022-08-17T08:59:59.454Z,28.57
2022-08-17T09:00:56.112Z,28.52
2022-08-17T09:01:56.448Z,28.33
2022-08-17T09:02:56.234Z,28.18
2022-08-17T09:04:12.005Z,27.77
2022-08-17T09:05:13.205Z,27.83
2022-08-17T09:05:56.090Z,27.79
2022-08-17T09:06:56.082Z,27.78
2022-08-17T09:07:59.211Z,27.8
2022-08-17T09:08:56.086Z,27.97
2022-08-17T09:09:59.433Z,28
2022-08-17T09:10:56.097Z,28.15
2022-08-17T09:12:01.619Z,28.15
2022-08-17T09:12:56.116Z,28.34
2022-08-17T09:13:56.085Z,28.35
2022-08-17T09:14:56.102Z,28.24
2022-08-17T09:15:56.089Z,28.07
2022-08-17T09:16:56.099Z,28.03
2022-08-17T09:18:14.867Z,28.17
2022-08-17T09:19:03.755Z,28.19
2022-08-17T09:19:56.089Z,28.17
2022-08-17T09:20:56.095Z,28.32
2022-08-17T09:21:56.105Z,28.38
2022-08-17T09:22:56.180Z,28.5
2022-08-17T09:23:56.104Z,28.32
2022-08-17T09:24:56.098Z,28.34
2022-08-17T09:25:56.105Z,28.36
2022-08-17T09:26:56.096Z,28.34
2022-08-17T09:27:56.093Z,28.26
2022-08-17T09:28:56.090Z,28.43
2022-08-17T09:29:56.096Z,28.43
2022-08-17T09:30:56.098Z,28.33
2022-08-17T09:31:56.104Z,28.31
2022-08-17T09:32:56.100Z,28.32
2022-08-17T09:33:56.107Z,28.4
2022-08-17T09:34:56.307Z,28.55
2022-08-17T09:35:56.094Z,28.87
2022-08-17T09:36:56.098Z,28.88
2022-08-17T09:37:56.090Z,29.09
2022-08-17T09:38:56.105Z,28.9
2022-08-17T09:39:56.157Z,28.71
2022-08-17T09:40:56.100Z,28.82
2022-08-17T09:41:56.100Z,28.89
2022-08-17T09:42:56.115Z,28.91
2022-08-17T09:43:56.110Z,28.67
2022-08-17T09:44:56.114Z,28.62
2022-08-17T09:45:56.091Z,28.62
2022-08-17T09:46:56.097Z,28.57
2022-08-17T09:47:57.101Z,28.74
2022-08-17T09:48:56.095Z,28.78
2022-08-17T09:49:56.087Z,28.95
2022-08-17T09:51:03.321Z,28.92
2022-08-17T09:51:56.088Z,28.74
2022-08-17T09:52:56.195Z,28.84
2022-08-17T09:54:15.078Z,28.91
2022-08-17T09:54:56.636Z,28.99
2022-08-17T09:55:57.509Z,29.16
2022-08-17T09:57:18.400Z,29.04
2022-08-17T09:57:56.239Z,29.22
2022-08-17T09:58:57.035Z,29.32
2022-08-17T09:59:56.853Z,29.29
2022-08-17T10:00:57.984Z,29.31
2022-08-17T10:01:56.098Z,29.31
2022-08-17T10:02:56.097Z,29.24
2022-08-17T10:03:56.113Z,29.16
2022-08-17T10:04:56.122Z,29.14
2022-08-17T10:05:57.259Z,29.42
2022-08-17T10:06:56.125Z,29.33
2022-08-17T10:07:56.107Z,29.45
2022-08-17T10:08:56.095Z,29.35
2022-08-17T10:09:56.111Z,29.32
2022-08-17T10:10:57.127Z,29.46
2022-08-17T10:11:59.102Z,29.54
2022-08-17T10:12:56.099Z,29.8
2022-08-17T10:13:59.555Z,30.1
2022-08-17T10:14:56.115Z,30.5
2022-08-17T10:15:56.096Z,30.98
2022-08-17T10:16:56.198Z,31.27
2022-08-17T10:17:56.101Z,31.4
2022-08-17T10:18:56.090Z,31.67
2022-08-17T10:19:56.101Z,31.01
2022-08-17T10:20:56.082Z,30.65
2022-08-17T10:22:00.715Z,30.59
2022-08-17T10:22:56.091Z,30.75
2022-08-17T10:23:56.118Z,30.88
2022-08-17T10:25:02.212Z,30.97
2022-08-17T10:25:57.109Z,31.04
2022-08-17T10:26:57.468Z,30.99
2022-08-17T10:27:56.102Z,31
2022-08-17T10:28:56.099Z,30.87
2022-08-17T10:29:56.091Z,30.68
2022-08-17T10:31:16.965Z,30.49
2022-08-17T10:31:56.211Z,30.33
2022-08-17T10:32:56.080Z,30.24
2022-08-17T10:33:56.083Z,30.23
2022-08-17T10:34:56.058Z,30.2
2022-08-17T10:35:59.097Z,30.16
2022-08-17T10:36:56.242Z,30.15
2022-08-17T10:37:56.087Z,30.15
2022-08-17T10:38:56.198Z,30.1
2022-08-17T10:39:56.526Z,30.1
2022-08-17T10:40:56.631Z,30.03
2022-08-17T10:41:56.181Z,29.99
2022-08-17T10:42:56.531Z,29.97
2022-08-17T10:44:37.657Z,29.99
2022-08-17T10:44:56.118Z,29.99
2022-08-17T10:46:10.374Z,29.99
2022-08-17T10:46:56.082Z,29.97
2022-08-17T10:47:59.015Z,29.98
2022-08-17T10:48:56.113Z,29.92
2022-08-17T10:49:56.106Z,29.88
2022-08-17T10:50:56.113Z,29.81
2022-08-17T10:51:56.122Z,29.8
2022-08-17T10:52:56.074Z,29.7
2022-08-17T10:53:56.132Z,29.65
2022-08-17T10:54:59.207Z,29.64
2022-08-17T10:55:56.089Z,29.66
2022-08-17T10:56:56.137Z,29.56
2022-08-17T10:57:56.099Z,29.39
2022-08-17T10:58:56.175Z,29.36
2022-08-17T10:59:56.092Z,29.28
2022-08-17T11:00:56.188Z,29.24
2022-08-17T11:01:56.253Z,29.24
2022-08-17T11:02:56.109Z,29.17
2022-08-17T11:03:56.118Z,29.17
2022-08-17T11:04:56.091Z,29.19
2022-08-17T11:05:56.092Z,29.24
2022-08-17T11:06:56.095Z,29.22
2022-08-17T11:07:56.088Z,29.23
2022-08-17T11:08:56.109Z,29.2
2022-08-17T11:09:56.095Z,29.17
2022-08-17T11:10:56.102Z,29.14
2022-08-17T11:11:56.100Z,29.13
2022-08-17T11:12:56.095Z,29.11
2022-08-17T11:13:56.127Z,29.08
2022-08-17T11:14:56.104Z,29.02
2022-08-17T11:16:00.713Z,28.93
2022-08-17T11:16:56.084Z,28.86
2022-08-17T11:17:56.095Z,28.79
2022-08-17T11:18:56.106Z,28.77
2022-08-17T11:19:56.089Z,28.74
2022-08-17T11:20:56.099Z,28.71
2022-08-17T11:21:56.104Z,28.69
2022-08-17T11:22:56.108Z,28.68
2022-08-17T11:23:56.126Z,28.68
2022-08-17T11:24:56.152Z,28.59
2022-08-17T11:25:56.100Z,28.52
2022-08-17T11:26:56.095Z,28.47
2022-08-17T11:27:56.091Z,28.39
2022-08-17T11:28:56.103Z,28.36
2022-08-17T11:30:01.721Z,28.33
2022-08-17T11:30:56.091Z,28.28
2022-08-17T11:31:56.096Z,28.24
2022-08-17T11:32:57.209Z,28.21
2022-08-17T11:33:56.130Z,28.17
2022-08-17T11:34:56.103Z,28.19
2022-08-17T11:35:56.092Z,28.19
2022-08-17T11:36:56.178Z,28.19
2022-08-17T11:37:56.065Z,28.2
2022-08-17T11:38:59.164Z,28.18
2022-08-17T11:39:56.117Z,28.17
2022-08-17T11:40:56.124Z,28.12
2022-08-17T11:41:56.111Z,28.09
2022-08-17T11:42:56.061Z,28.05
2022-08-17T11:43:56.190Z,28.03
2022-08-17T11:44:56.520Z,28
2022-08-17T11:45:56.198Z,27.96
2022-08-17T11:46:56.403Z,27.94
2022-08-17T11:48:24.145Z,27.93
2022-08-17T11:48:56.725Z,27.93
2022-08-17T11:49:56.260Z,27.93
2022-08-17T11:50:56.326Z,27.94
2022-08-17T11:51:56.527Z,27.92
2022-08-17T11:52:56.398Z,27.92
2022-08-17T11:54:14.961Z,27.9
2022-08-17T11:55:12.364Z,27.9
2022-08-17T11:55:56.088Z,27.89
2022-08-17T11:56:56.111Z,27.88
2022-08-17T11:57:56.094Z,27.86
2022-08-17T11:58:56.119Z,27.82
2022-08-17T11:59:56.287Z,27.81
2022-08-17T12:00:56.070Z,27.81
2022-08-17T12:01:56.095Z,27.83
2022-08-17T12:02:56.068Z,27.85
2022-08-17T12:03:56.312Z,27.84
2022-08-17T12:04:56.116Z,27.86
2022-08-17T12:05:56.202Z,27.85
2022-08-17T12:06:56.194Z,27.86
2022-08-17T12:07:56.505Z,27.88
2022-08-17T12:08:57.240Z,27.89
2022-08-17T12:09:56.355Z,27.9
2022-08-17T12:10:56.418Z,27.88
2022-08-17T12:12:11.764Z,27.87
2022-08-17T12:12:56.382Z,27.86
2022-08-17T12:13:56.104Z,27.87
2022-08-17T12:15:09.939Z,27.88
2022-08-17T12:15:56.090Z,27.86
2022-08-17T12:16:56.377Z,27.89
2022-08-17T12:17:56.422Z,27.88
2022-08-17T12:18:56.123Z,27.92
2022-08-17T12:19:56.111Z,27.94
2022-08-17T12:20:57.503Z,27.96
2022-08-17T12:21:56.114Z,27.98
2022-08-17T12:22:56.107Z,28.04
2022-08-17T12:23:56.109Z,28.09
2022-08-17T12:24:56.101Z,28.17
2022-08-17T12:25:56.089Z,28.26
2022-08-17T12:26:56.082Z,28.39
2022-08-17T12:28:05.827Z,28.49
2022-08-17T12:28:59.722Z,28.53
2022-08-17T12:29:56.102Z,28.63
2022-08-17T12:30:56.095Z,28.75
2022-08-17T12:31:56.107Z,28.88
2022-08-17T12:32:56.345Z,29.02
2022-08-17T12:33:56.138Z,29.02
2022-08-17T12:34:56.091Z,28.97
2022-08-17T12:35:59.678Z,28.97
2022-08-17T12:36:56.095Z,29.02
2022-08-17T12:37:56.099Z,29.11
2022-08-17T12:38:56.112Z,29.21
2022-08-17T12:39:56.130Z,29.29
2022-08-17T12:40:59.106Z,29.4
2022-08-17T12:42:02.301Z,29.5
2022-08-17T12:42:56.102Z,29.58
2022-08-17T12:43:56.102Z,29.63
2022-08-17T12:44:56.111Z,29.64
2022-08-17T12:45:56.096Z,29.59
2022-08-17T12:46:56.101Z,29.53
2022-08-17T12:47:56.088Z,29.49
2022-08-17T12:49:00.181Z,29.37
2022-08-17T12:49:56.092Z,29.27
2022-08-17T12:50:56.089Z,29.1
2022-08-17T12:51:56.092Z,28.85
2022-08-17T12:53:01.886Z,28.78
2022-08-17T12:53:56.118Z,28.73
2022-08-17T12:54:56.197Z,28.71
2022-08-17T12:55:56.098Z,28.76